createdAt,value
2022-11-20T00:01:32.071Z,1.60
2022-11-20T00:04:01.213Z,1.50
2022-11-20T00:06:30.537Z,1.50
2022-11-20T00:09:01.327Z,1.50
2022-11-20T00:11:31.745Z,1.60
2022-11-20T00:14:03.741Z,1.70
2022-11-20T00:16:34.328Z,1.60
2022-11-20T00:19:02.391Z,1.60
2022-11-20T00:21:31.374Z,1.60
2022-11-20T00:24:00.063Z,1.70
2022-11-20T00:26:29.730Z,1.70
2022-11-20T00:28:59.660Z,1.70
2022-11-20T00:31:30.012Z,1.70
2022-11-20T00:33:58.610Z,1.60
2022-11-20T00:36:28.262Z,1.60
2022-11-20T00:38:58.124Z,1.60
2022-11-20T00:41:27.683Z,1.60
2022-11-20T00:43:56.588Z,1.60
2022-11-20T00:46:27.237Z,1.50
2022-11-20T00:48:57.088Z,1.50
2022-11-20T00:51:28.219Z,1.60
2022-11-20T00:53:58.256Z,1.50
2022-11-20T00:56:26.374Z,1.60
2022-11-20T00:58:54.450Z,1.70
2022-11-20T01:01:26.343Z,1.70
2022-11-20T01:03:57.333Z,1.60
2022-11-20T01:06:27.765Z,1.60
2022-11-20T01:08:57.696Z,1.50
2022-11-20T01:11:28.797Z,1.50
2022-11-20T01:13:58.733Z,1.50
2022-11-20T01:16:29.425Z,1.50
2022-11-20T01:19:01.937Z,1.50
2022-11-20T01:21:32.352Z,1.50
2022-11-20T01:24:01.463Z,1.40
2022-11-20T01:26:31.485Z,1.50
2022-11-20T01:29:00.646Z,1.50
2022-11-20T01:31:30.366Z,1.40
2022-11-20T01:34:01.800Z,1.40
2022-11-20T01:36:32.546Z,1.40
2022-11-20T01:39:02.778Z,1.30
2022-11-20T01:41:50.105Z,1.30
2022-11-20T01:44:20.988Z,1.20
2022-11-20T01:46:57.843Z,1.30
2022-11-20T01:49:32.403Z,1.30
2022-11-20T01:52:06.540Z,1.30
2022-11-20T01:54:42.024Z,1.40
2022-11-20T01:57:12.884Z,1.50
2022-11-20T01:59:46.502Z,1.50
2022-11-20T02:02:14.934Z,1.50
2022-11-20T02:04:44.347Z,1.40
2022-11-20T02:07:13.928Z,1.50
2022-11-20T02:09:42.340Z,1.50
2022-11-20T02:12:30.764Z,1.50
2022-11-20T02:14:58.843Z,1.60
2022-11-20T02:17:27.685Z,1.50
2022-11-20T02:19:57.717Z,1.40
2022-11-20T02:22:31.171Z,1.30
2022-11-20T02:25:03.112Z,1.30
2022-11-20T02:27:31.673Z,1.40
2022-11-20T02:30:03.178Z,1.40
2022-11-20T02:32:33.409Z,1.40
2022-11-20T02:35:09.667Z,1.40
2022-11-20T02:37:41.798Z,1.40
2022-11-20T02:40:12.638Z,1.40
2022-11-20T02:42:40.772Z,1.30
2022-11-20T02:45:10.024Z,1.30
2022-11-20T02:47:38.311Z,1.30
2022-11-20T02:50:07.680Z,1.30
2022-11-20T02:52:35.752Z,1.30
2022-11-20T02:55:04.066Z,1.30
2022-11-20T02:57:36.584Z,1.30
2022-11-20T03:00:06.054Z,1.30
2022-11-20T03:02:36.785Z,1.30
2022-11-20T03:05:05.064Z,1.30
2022-11-20T03:07:33.367Z,1.40
2022-11-20T03:10:01.655Z,1.30
2022-11-20T03:12:30.004Z,1.30
2022-11-20T03:14:59.449Z,1.20
2022-11-20T03:17:27.535Z,1.30
2022-11-20T03:19:55.666Z,1.30
2022-11-20T03:22:24.005Z,1.30
2022-11-20T03:24:52.218Z,1.40
2022-11-20T03:27:20.315Z,1.40
2022-11-20T03:29:48.564Z,1.40
2022-11-20T03:32:18.338Z,1.40
2022-11-20T03:34:46.582Z,1.30
2022-11-20T03:37:14.802Z,1.30
2022-11-20T03:39:42.888Z,1.30
2022-11-20T03:42:31.862Z,1.30
2022-11-20T03:45:00.049Z,1.40
2022-11-20T03:47:29.659Z,1.50
2022-11-20T03:49:57.757Z,1.50
2022-11-20T03:52:25.812Z,1.50
2022-11-20T03:54:53.894Z,1.50
2022-11-20T03:57:21.967Z,1.60
2022-11-20T03:59:50.082Z,1.60
2022-11-20T04:02:18.202Z,1.60
2022-11-20T04:04:47.692Z,1.60
2022-11-20T04:07:15.861Z,1.50
2022-11-20T04:09:44.471Z,1.70
2022-11-20T04:12:12.622Z,1.70
2022-11-20T04:14:40.675Z,1.70
2022-11-20T04:17:08.744Z,1.70
2022-11-20T04:19:36.880Z,1.70
2022-11-20T04:22:06.345Z,1.70
2022-11-20T04:24:35.024Z,1.70
2022-11-20T04:27:03.232Z,1.70
2022-11-20T04:29:31.413Z,1.60
2022-11-20T04:31:59.965Z,1.50
2022-11-20T04:34:28.312Z,1.50
2022-11-20T04:36:56.505Z,1.50
2022-11-20T04:39:25.975Z,1.60
2022-11-20T04:42:14.318Z,1.60
2022-11-20T04:44:42.410Z,1.60
2022-11-20T04:47:10.475Z,1.60
2022-11-20T04:49:38.660Z,1.60
2022-11-20T04:52:06.812Z,1.70
2022-11-20T04:54:36.487Z,1.60
2022-11-20T04:57:04.630Z,1.60
2022-11-20T04:59:32.759Z,1.60
2022-11-20T05:02:00.877Z,1.60
2022-11-20T05:04:28.973Z,1.60
2022-11-20T05:06:57.146Z,1.60
2022-11-20T05:09:25.247Z,1.60
2022-11-20T05:11:54.764Z,1.60
2022-11-20T05:14:22.820Z,1.70
2022-11-20T05:16:51.046Z,1.70
2022-11-20T05:19:19.711Z,1.80
2022-11-20T05:21:48.153Z,1.80
2022-11-20T05:24:16.193Z,1.70
2022-11-20T05:26:44.246Z,1.60
2022-11-20T05:29:14.497Z,1.50
2022-11-20T05:31:43.474Z,1.50
2022-11-20T05:34:11.835Z,1.50
2022-11-20T05:36:39.977Z,1.60
2022-11-20T05:39:08.132Z,1.60
2022-11-20T05:41:36.247Z,1.60
2022-11-20T05:44:04.353Z,1.60
2022-11-20T05:46:34.063Z,1.60
2022-11-20T05:49:02.147Z,1.60
2022-11-20T05:51:30.303Z,1.60
2022-11-20T05:53:59.819Z,1.70
2022-11-20T05:56:28.318Z,1.60
2022-11-20T05:58:56.458Z,1.60
2022-11-20T06:01:26.390Z,1.70
2022-11-20T06:03:57.073Z,1.70
2022-11-20T06:06:26.232Z,1.70
2022-11-20T06:08:54.419Z,1.60
2022-11-20T06:11:22.792Z,1.60
2022-11-20T06:13:51.163Z,1.60
2022-11-20T06:16:21.470Z,1.60
2022-11-20T06:18:49.738Z,1.70
2022-11-20T06:21:20.853Z,1.70
2022-11-20T06:23:50.052Z,1.70
2022-11-20T06:26:19.989Z,1.70
2022-11-20T06:28:48.796Z,1.70
2022-11-20T06:31:19.304Z,1.70
2022-11-20T06:33:47.745Z,1.70
2022-11-20T06:36:17.144Z,1.70
2022-11-20T06:38:47.328Z,1.70
2022-11-20T06:41:17.932Z,1.60
2022-11-20T06:43:46.635Z,1.60
2022-11-20T06:46:18.516Z,1.60
2022-11-20T06:48:47.140Z,1.50
2022-11-20T06:51:15.745Z,1.50
2022-11-20T06:53:44.159Z,1.50
2022-11-20T06:56:13.651Z,1.50
2022-11-20T06:58:41.769Z,1.40
2022-11-20T07:01:12.850Z,1.40
2022-11-20T07:03:41.694Z,1.50
2022-11-20T07:06:10.278Z,1.50
2022-11-20T07:08:41.736Z,1.50
2022-11-20T07:11:10.293Z,1.60
2022-11-20T07:13:39.852Z,1.60
2022-11-20T07:16:09.966Z,1.70
2022-11-20T07:18:38.500Z,1.60
2022-11-20T07:21:09.091Z,1.60
2022-11-20T07:23:37.678Z,1.60
2022-11-20T07:26:06.818Z,1.60
2022-11-20T07:28:35.834Z,1.70
2022-11-20T07:31:07.720Z,1.80
2022-11-20T07:33:36.137Z,1.70
2022-11-20T07:36:04.908Z,1.70
2022-11-20T07:38:33.198Z,1.60
2022-11-20T07:41:02.645Z,1.70
2022-11-20T07:43:30.981Z,1.80
2022-11-20T07:45:59.226Z,1.80
2022-11-20T07:48:28.744Z,1.90
2022-11-20T07:50:57.002Z,1.80
2022-11-20T07:53:25.476Z,1.90
2022-11-20T07:55:53.932Z,1.90
2022-11-20T07:58:22.449Z,1.90
2022-11-20T08:00:50.740Z,1.80
2022-11-20T08:03:24.389Z,1.80
2022-11-20T08:05:54.556Z,1.80
2022-11-20T08:08:23.896Z,1.90
2022-11-20T08:10:52.029Z,2.00
2022-11-20T08:13:37.452Z,2.00
2022-11-20T08:16:06.134Z,2.00
2022-11-20T08:18:34.344Z,1.90
2022-11-20T08:21:05.989Z,2.00
2022-11-20T08:23:34.400Z,1.90
2022-11-20T08:26:02.535Z,1.90
2022-11-20T08:28:30.788Z,2.00
2022-11-20T08:31:02.364Z,2.00
2022-11-20T08:33:30.999Z,2.00
2022-11-20T08:36:02.078Z,2.10
2022-11-20T08:38:31.997Z,2.20
2022-11-20T08:41:14.583Z,2.30
2022-11-20T08:43:42.699Z,2.50
2022-11-20T08:46:10.888Z,2.60
2022-11-20T08:48:39.082Z,2.60
2022-11-20T08:51:07.817Z,2.70
2022-11-20T08:53:37.296Z,2.70
2022-11-20T08:56:05.696Z,2.70
2022-11-20T08:58:54.915Z,2.80
2022-11-20T09:01:24.150Z,2.70
2022-11-20T09:03:52.371Z,2.70
2022-11-20T09:06:20.885Z,2.70
2022-11-20T09:08:54.168Z,2.70
2022-11-20T09:11:23.577Z,2.70
2022-11-20T09:13:51.868Z,2.70
2022-11-20T09:16:20.021Z,2.70
2022-11-20T09:18:54.080Z,2.70
2022-11-20T09:21:30.184Z,2.70
2022-11-20T09:23:59.851Z,2.80
2022-11-20T09:26:28.048Z,2.90
2022-11-20T09:28:58.036Z,2.90
2022-11-20T09:31:27.633Z,3.00
2022-11-20T09:33:56.021Z,3.00
2022-11-20T09:36:24.238Z,3.00
2022-11-20T09:38:52.604Z,3.10
2022-11-20T09:41:43.066Z,3.10
2022-11-20T09:44:38.892Z,3.10
2022-11-20T09:47:13.702Z,3.20
2022-11-20T09:49:57.420Z,3.20
2022-11-20T09:52:39.729Z,3.20
2022-11-20T09:55:12.812Z,3.20
2022-11-20T09:57:44.932Z,3.30
2022-11-20T10:00:15.112Z,3.20
2022-11-20T10:02:49.168Z,3.20
2022-11-20T10:05:22.334Z,3.20
2022-11-20T10:07:57.030Z,3.30
2022-11-20T10:10:37.501Z,3.30
2022-11-20T10:13:30.266Z,3.30
2022-11-20T10:16:13.400Z,3.40
2022-11-20T10:18:56.695Z,3.40
2022-11-20T10:21:36.811Z,3.40
2022-11-20T10:24:38.763Z,3.40
2022-11-20T10:27:19.455Z,3.40
2022-11-20T10:30:01.322Z,3.30
2022-11-20T10:32:38.111Z,3.30
2022-11-20T10:35:16.544Z,3.30
2022-11-20T10:37:46.943Z,3.50
2022-11-20T10:40:28.416Z,3.50
2022-11-20T10:43:01.810Z,3.50
2022-11-20T10:45:50.668Z,3.50
2022-11-20T10:48:23.200Z,3.40
2022-11-20T10:51:17.643Z,3.30
2022-11-20T10:53:56.204Z,3.50
2022-11-20T10:56:30.075Z,3.70
2022-11-20T10:59:25.406Z,3.90
2022-11-20T11:01:55.266Z,3.90
2022-11-20T11:04:40.031Z,3.90
2022-11-20T11:07:13.477Z,3.90
2022-11-20T11:09:45.790Z,3.80
2022-11-20T11:12:14.067Z,3.80
2022-11-20T11:14:47.567Z,4.20
2022-11-20T11:17:31.655Z,4.40
2022-11-20T11:20:01.775Z,4.70
2022-11-20T11:22:32.200Z,5.00
2022-11-20T11:25:00.970Z,5.30
2022-11-20T11:27:29.645Z,5.30
2022-11-20T11:30:15.162Z,5.30
2022-11-20T11:32:44.778Z,5.30
2022-11-20T11:35:24.942Z,5.20
2022-11-20T11:37:56.169Z,5.10
2022-11-20T11:40:27.975Z,5.00
2022-11-20T11:43:00.794Z,4.80
2022-11-20T11:45:28.508Z,4.80
2022-11-20T11:47:59.776Z,4.60
2022-11-20T11:50:28.881Z,4.60
2022-11-20T11:53:05.383Z,4.90
2022-11-20T11:55:38.350Z,5.30
2022-11-20T11:58:19.269Z,5.50
2022-11-20T12:00:53.534Z,5.40
2022-11-20T12:03:26.647Z,5.30
2022-11-20T12:06:00.327Z,5.10
2022-11-20T12:08:33.661Z,4.80
2022-11-20T12:11:08.599Z,4.70
2022-11-20T12:13:47.329Z,4.60
2022-11-20T12:16:17.167Z,4.60
2022-11-20T12:18:54.136Z,4.50
2022-11-20T12:21:32.158Z,4.50
2022-11-20T12:24:27.442Z,4.50
2022-11-20T12:27:07.500Z,4.40
2022-11-20T12:29:53.179Z,4.30
2022-11-20T12:32:57.141Z,4.30
2022-11-20T12:35:44.894Z,4.40
2022-11-20T12:38:46.979Z,4.50
2022-11-20T12:41:39.003Z,4.70
2022-11-20T12:44:41.675Z,4.80
2022-11-20T12:47:21.483Z,4.90
2022-11-20T12:49:58.630Z,4.90
2022-11-20T12:52:40.056Z,4.90
2022-11-20T12:55:25.905Z,5.00
2022-11-20T12:58:00.531Z,5.00
2022-11-20T13:00:28.969Z,5.20
2022-11-20T13:03:20.245Z,5.30
2022-11-20T13:05:57.980Z,5.40
2022-11-20T13:08:31.922Z,5.40
2022-11-20T13:11:09.216Z,5.50
2022-11-20T13:13:47.652Z,5.70
2022-11-20T13:16:21.295Z,5.80
2022-11-20T13:18:49.440Z,5.90
2022-11-20T13:21:19.879Z,5.80
2022-11-20T13:23:49.467Z,5.70
2022-11-20T13:26:21.148Z,5.40
2022-11-20T13:29:01.155Z,5.20
2022-11-20T13:31:34.854Z,5.20
2022-11-20T13:34:06.159Z,5.10
2022-11-20T13:36:36.065Z,5.00
2022-11-20T13:39:05.546Z,5.00
2022-11-20T13:41:36.508Z,5.10
2022-11-20T13:44:14.950Z,5.00
2022-11-20T13:46:45.666Z,5.00
2022-11-20T13:49:21.275Z,5.10
2022-11-20T13:51:51.721Z,5.20
2022-11-20T13:54:52.816Z,5.00
2022-11-20T13:57:59.877Z,4.90
2022-11-20T14:00:28.670Z,4.80
2022-11-20T14:03:13.505Z,4.90
2022-11-20T14:05:49.549Z,5.00
2022-11-20T14:08:27.506Z,5.00
2022-11-20T14:11:07.687Z,5.10
2022-11-20T14:13:35.921Z,5.10
2022-11-20T14:16:04.010Z,5.10
2022-11-20T14:18:32.095Z,5.20
2022-11-20T14:21:03.001Z,5.10
2022-11-20T14:23:31.838Z,5.10
2022-11-20T14:26:00.085Z,4.90
2022-11-20T14:28:31.658Z,4.80
2022-11-20T14:31:00.402Z,4.80
2022-11-20T14:33:29.834Z,4.90
2022-11-20T14:36:00.022Z,5.00
2022-11-20T14:38:30.288Z,4.90
2022-11-20T14:41:08.515Z,4.90
2022-11-20T14:43:39.100Z,4.90
2022-11-20T14:46:09.619Z,4.90
2022-11-20T14:48:42.981Z,4.90
2022-11-20T14:51:12.997Z,4.90
2022-11-20T14:53:41.411Z,4.80
2022-11-20T14:56:11.014Z,4.90
2022-11-20T14:58:40.774Z,5.00
2022-11-20T15:01:09.954Z,5.10
2022-11-20T15:03:39.609Z,5.20
2022-11-20T15:06:08.859Z,5.00
2022-11-20T15:08:37.332Z,5.00
2022-11-20T15:11:05.709Z,5.00
2022-11-20T15:13:36.353Z,5.00
2022-11-20T15:16:15.309Z,5.00
2022-11-20T15:18:43.822Z,5.20
2022-11-20T15:21:13.674Z,5.20
2022-11-20T15:23:41.952Z,5.20
2022-11-20T15:26:15.448Z,5.20
2022-11-20T15:28:48.877Z,5.10
2022-11-20T15:31:20.673Z,5.00
2022-11-20T15:33:49.401Z,5.10
2022-11-20T15:36:17.578Z,5.00
2022-11-20T15:38:45.770Z,5.00
2022-11-20T15:41:13.960Z,4.90
2022-11-20T15:43:42.076Z,4.90
2022-11-20T15:46:14.834Z,5.00
2022-11-20T15:48:48.613Z,5.10
2022-11-20T15:51:26.706Z,5.10
2022-11-20T15:53:56.596Z,5.20
2022-11-20T15:56:28.396Z,5.20
2022-11-20T15:58:56.823Z,5.30
2022-11-20T16:01:25.878Z,5.20
2022-11-20T16:03:55.531Z,5.00
2022-11-20T16:06:23.892Z,5.00
2022-11-20T16:08:52.202Z,5.00
2022-11-20T16:11:20.636Z,5.00
2022-11-20T16:14:06.021Z,5.00
2022-11-20T16:16:36.751Z,4.90
2022-11-20T16:19:06.511Z,4.90
2022-11-20T16:21:35.766Z,4.90
2022-11-20T16:24:06.026Z,4.90
2022-11-20T16:26:35.289Z,4.80
2022-11-20T16:29:06.027Z,4.80
2022-11-20T16:31:34.856Z,4.70
2022-11-20T16:34:11.963Z,4.70
2022-11-20T16:36:42.889Z,4.70
2022-11-20T16:39:11.319Z,4.80
2022-11-20T16:41:39.429Z,4.80
2022-11-20T16:44:10.838Z,4.80
2022-11-20T16:46:40.824Z,4.90
2022-11-20T16:49:14.927Z,5.00
2022-11-20T16:51:43.202Z,5.00
2022-11-20T16:54:16.341Z,5.10
2022-11-20T16:56:48.679Z,5.20
2022-11-20T16:59:17.423Z,5.20
2022-11-20T17:01:46.035Z,5.20
2022-11-20T17:04:16.091Z,5.20
2022-11-20T17:06:46.008Z,5.30
2022-11-20T17:09:14.658Z,5.20
2022-11-20T17:11:42.808Z,5.30
2022-11-20T17:14:13.269Z,5.30
2022-11-20T17:16:41.718Z,5.30
2022-11-20T17:19:15.452Z,5.40
2022-11-20T17:21:47.753Z,5.50
2022-11-20T17:24:17.111Z,5.30
2022-11-20T17:26:46.735Z,5.30
2022-11-20T17:29:17.204Z,5.30
2022-11-20T17:31:46.704Z,5.20
2022-11-20T17:34:17.160Z,5.10
2022-11-20T17:36:47.260Z,5.20
2022-11-20T17:39:16.951Z,5.20
2022-11-20T17:41:45.698Z,5.20
2022-11-20T17:44:14.883Z,5.20
2022-11-20T17:46:43.070Z,5.20
2022-11-20T17:49:12.044Z,5.20
2022-11-20T17:51:42.175Z,5.20
2022-11-20T17:54:13.055Z,5.20
2022-11-20T17:56:58.896Z,5.20
2022-11-20T17:59:27.284Z,5.10
2022-11-20T18:01:59.639Z,5.00
2022-11-20T18:04:30.771Z,5.10
2022-11-20T18:06:59.247Z,5.10
2022-11-20T18:09:29.504Z,5.00
2022-11-20T18:11:58.101Z,5.10
2022-11-20T18:14:34.735Z,5.00
2022-11-20T18:17:04.910Z,4.90
2022-11-20T18:19:37.607Z,4.90
2022-11-20T18:22:09.781Z,4.80
2022-11-20T18:24:40.488Z,4.80
2022-11-20T18:27:14.779Z,4.80
2022-11-20T18:29:43.053Z,4.80
2022-11-20T18:32:11.557Z,4.80
2022-11-20T18:34:40.210Z,4.80
2022-11-20T18:37:10.045Z,4.70
2022-11-20T18:39:39.936Z,4.70
2022-11-20T18:42:25.656Z,4.70
2022-11-20T18:44:55.101Z,4.80
2022-11-20T18:47:25.584Z,4.70
2022-11-20T18:49:57.434Z,4.80
2022-11-20T18:52:28.966Z,4.70
2022-11-20T18:54:59.652Z,4.70
2022-11-20T18:57:29.722Z,4.70
2022-11-20T19:00:07.925Z,4.70
2022-11-20T19:02:43.078Z,4.70
2022-11-20T19:05:12.092Z,4.70
2022-11-20T19:07:41.251Z,4.70
2022-11-20T19:10:12.365Z,4.70
2022-11-20T19:12:40.562Z,4.70
2022-11-20T19:15:09.582Z,4.70
2022-11-20T19:17:37.814Z,4.70
2022-11-20T19:20:07.526Z,4.60
2022-11-20T19:22:35.937Z,4.60
2022-11-20T19:25:04.360Z,4.60
2022-11-20T19:27:34.747Z,4.60
2022-11-20T19:30:03.941Z,4.60
2022-11-20T19:32:32.819Z,4.60
2022-11-20T19:35:01.391Z,4.60
2022-11-20T19:37:29.802Z,4.60
2022-11-20T19:39:59.742Z,4.60
2022-11-20T19:42:28.645Z,4.60
2022-11-20T19:44:59.148Z,4.60
2022-11-20T19:47:52.767Z,4.50
2022-11-20T19:50:17.254Z,4.50
2022-11-20T19:52:45.824Z,4.50
2022-11-20T19:55:14.151Z,4.50
2022-11-20T19:57:42.721Z,4.50
2022-11-20T20:00:17.241Z,4.50
2022-11-20T20:02:48.748Z,4.50
2022-11-20T20:05:17.493Z,4.50
2022-11-20T20:07:45.861Z,4.50
2022-11-20T20:10:14.140Z,4.50
2022-11-20T20:12:42.929Z,4.50
2022-11-20T20:15:12.991Z,4.50
2022-11-20T20:17:41.437Z,4.50
2022-11-20T20:20:10.621Z,4.40
2022-11-20T20:22:38.780Z,4.40
2022-11-20T20:25:08.002Z,4.40
2022-11-20T20:27:37.032Z,4.40
2022-11-20T20:30:05.851Z,4.40
2022-11-20T20:32:36.531Z,4.40
2022-11-20T20:35:05.260Z,4.40
2022-11-20T20:37:33.894Z,4.40
2022-11-20T20:40:02.245Z,4.40
2022-11-20T20:42:32.406Z,4.40
2022-11-20T20:45:11.099Z,4.40
2022-11-20T20:47:42.301Z,4.40
2022-11-20T20:50:13.323Z,4.40
2022-11-20T20:52:41.757Z,4.30
2022-11-20T20:55:11.019Z,4.40
2022-11-20T20:57:39.849Z,4.30
2022-11-20T21:00:09.187Z,4.30
2022-11-20T21:02:37.508Z,4.30
2022-11-20T21:05:08.175Z,4.30
2022-11-20T21:07:56.440Z,4.30
2022-11-20T21:10:24.557Z,4.30
2022-11-20T21:12:53.471Z,4.30
2022-11-20T21:15:21.918Z,4.20
2022-11-20T21:17:50.053Z,4.20
2022-11-20T21:20:33.953Z,4.20
2022-11-20T21:23:02.186Z,4.10
2022-11-20T21:25:30.751Z,4.20
2022-11-20T21:27:59.160Z,4.20
2022-11-20T21:30:27.411Z,4.40
2022-11-20T21:32:56.447Z,4.40
2022-11-20T21:35:26.407Z,4.50
2022-11-20T21:37:55.369Z,4.70
2022-11-20T21:40:24.065Z,4.80
2022-11-20T21:42:52.466Z,4.90
2022-11-20T21:45:20.886Z,5.00
2022-11-20T21:47:51.137Z,5.10
2022-11-20T21:50:19.866Z,5.20
2022-11-20T21:52:49.857Z,5.30
2022-11-20T21:55:18.648Z,5.30
2022-11-20T21:57:46.784Z,5.30
2022-11-20T22:00:15.791Z,5.30
2022-11-20T22:02:44.444Z,5.30
2022-11-20T22:05:12.939Z,5.30
2022-11-20T22:07:45.676Z,5.20
2022-11-20T22:10:18.680Z,5.20
2022-11-20T22:12:47.390Z,5.20
2022-11-20T22:15:27.965Z,5.10
2022-11-20T22:18:18.276Z,5.10
2022-11-20T22:20:48.031Z,5.20
2022-11-20T22:23:17.553Z,5.20
2022-11-20T22:25:47.308Z,5.20
2022-11-20T22:28:16.346Z,5.10
2022-11-20T22:30:45.017Z,5.10
2022-11-20T22:33:13.975Z,5.10
2022-11-20T22:35:42.455Z,5.10
2022-11-20T22:38:11.047Z,5.10
2022-11-20T22:40:39.646Z,5.00
2022-11-20T22:43:10.271Z,5.00
2022-11-20T22:45:39.075Z,5.00
2022-11-20T22:48:08.308Z,5.00
2022-11-20T22:50:36.881Z,5.00
2022-11-20T22:53:05.135Z,5.00
2022-11-20T22:55:35.211Z,4.90
2022-11-20T22:58:03.868Z,5.00
2022-11-20T23:00:33.900Z,5.00
2022-11-20T23:03:02.774Z,5.00
2022-11-20T23:05:34.072Z,5.00
2022-11-20T23:08:02.808Z,5.00
2022-11-20T23:10:31.649Z,5.00
2022-11-20T23:12:59.842Z,5.00
2022-11-20T23:15:28.617Z,4.90
2022-11-20T23:17:58.495Z,4.90
2022-11-20T23:20:27.179Z,5.00
2022-11-20T23:22:55.365Z,4.90
2022-11-20T23:25:23.893Z,4.80
2022-11-20T23:27:53.366Z,4.70
2022-11-20T23:30:22.247Z,4.70
2022-11-20T23:32:50.845Z,4.70
2022-11-20T23:35:20.842Z,4.70
2022-11-20T23:37:52.369Z,4.80
2022-11-20T23:40:20.495Z,4.80
2022-11-20T23:43:03.200Z,4.70
2022-11-20T23:45:31.602Z,4.80
2022-11-20T23:48:00.266Z,4.70
2022-11-20T23:50:30.317Z,4.70
2022-11-20T23:52:59.020Z,4.60
2022-11-20T23:55:27.398Z,4.60
2022-11-20T23:57:55.754Z,4.50
